sensor_id;sensor_type;location;lat;lon;timestamp;temperature;humidity
1476;DHT22;730;48.870;12.542;2023-12-20T00:01:42;4.20;1.00
1476;DHT22;730;48.870;12.542;2023-12-20T00:04:08;4.20;1.00
1476;DHT22;730;48.870;12.542;2023-12-20T00:06:34;4.20;1.00
1476;DHT22;730;48.870;12.542;2023-12-20T00:09:00;4.20;1.00
1476;DHT22;730;48.870;12.542;2023-12-20T00:11:26;4.30;1.00
1476;DHT22;730;48.870;12.542;2023-12-20T00:13:52;4.30;1.00
1476;DHT22;730;48.870;12.542;2023-12-20T00:16:18;4.30;1.00
1476;DHT22;730;48.870;12.542;2023-12-20T00:18:44;4.40;1.00
1476;DHT22;730;48.870;12.542;2023-12-20T00:21:11;4.40;1.00
1476;DHT22;730;48.870;12.542;2023-12-20T00:23:37;4.40;1.00
1476;DHT22;730;48.870;12.542;2023-12-20T00:26:03;4.40;1.00
1476;DHT22;730;48.870;12.542;2023-12-20T00:28:29;4.40;1.00
1476;DHT22;730;48.870;12.542;2023-12-20T00:30:55;4.40;1.00
1476;DHT22;730;48.870;12.542;2023-12-20T00:33:21;4.40;1.00
1476;DHT22;730;48.870;12.542;2023-12-20T00:35:48;4.40;1.00
1476;DHT22;730;48.870;12.542;2023-12-20T00:38:14;4.40;1.00
1476;DHT22;730;48.870;12.542;2023-12-20T00:40:40;4.40;1.00
1476;DHT22;730;48.870;12.542;2023-12-20T00:43:10;4.40;1.00
1476;DHT22;730;48.870;12.542;2023-12-20T00:45:37;4.40;1.00
1476;DHT22;730;48.870;12.542;2023-12-20T00:48:03;4.40;1.00
1476;DHT22;730;48.870;12.542;2023-12-20T00:50:29;4.40;1.00
1476;DHT22;730;48.870;12.542;2023-12-20T00:52:55;4.40;1.00
1476;DHT22;730;48.870;12.542;2023-12-20T00:55:21;4.50;1.00
1476;DHT22;730;48.870;12.542;2023-12-20T00:57:47;4.50;1.00
1476;DHT22;730;48.870;12.542;2023-12-20T01:00:13;4.60;1.00
1476;DHT22;730;48.870;12.542;2023-12-20T01:02:39;4.60;1.00
1476;DHT22;730;48.870;12.542;2023-12-20T01:05:06;4.60;1.00
1476;DHT22;730;48.870;12.542;2023-12-20T01:07:33;4.60;1.00
1476;DHT22;730;48.870;12.542;2023-12-20T01:09:59;4.70;1.00
1476;DHT22;730;48.870;12.542;2023-12-20T01:12:25;4.70;1.00
1476;DHT22;730;48.870;12.542;2023-12-20T01:14:51;4.60;1.00
1476;DHT22;730;48.870;12.542;2023-12-20T01:17:17;4.60;1.00
1476;DHT22;730;48.870;12.542;2023-12-20T01:19:43;4.70;1.00
1476;DHT22;730;48.870;12.542;2023-12-20T01:22:09;4.60;1.00
1476;DHT22;730;48.870;12.542;2023-12-20T01:24:35;4.60;1.00
1476;DHT22;730;48.870;12.542;2023-12-20T01:27:01;4.70;1.00
1476;DHT22;730;48.870;12.542;2023-12-20T01:29:28;4.70;1.00
1476;DHT22;730;48.870;12.542;2023-12-20T01:31:54;4.70;1.00
1476;DHT22;730;48.870;12.542;2023-12-20T01:34:20;4.70;1.00
1476;DHT22;730;48.870;12.542;2023-12-20T01:36:46;4.70;1.00
1476;DHT22;730;48.870;12.542;2023-12-20T01:39:12;4.70;1.00
1476;DHT22;730;48.870;12.542;2023-12-20T01:41:38;4.80;1.00
1476;DHT22;730;48.870;12.542;2023-12-20T01:44:04;4.80;1.00
1476;DHT22;730;48.870;12.542;2023-12-20T01:46:30;4.80;1.00
1476;DHT22;730;48.870;12.542;2023-12-20T01:48:57;4.80;1.00
1476;DHT22;730;48.870;12.542;2023-12-20T01:51:23;4.80;1.00
1476;DHT22;730;48.870;12.542;2023-12-20T01:53:49;4.70;1.00
1476;DHT22;730;48.870;12.542;2023-12-20T01:56:16;4.70;1.00
1476;DHT22;730;48.870;12.542;2023-12-20T01:58:46;4.70;1.00
1476;DHT22;730;48.870;12.542;2023-12-20T02:01:13;4.70;1.00
1476;DHT22;730;48.870;12.542;2023-12-20T02:03:41;4.60;1.00
1476;DHT22;730;48.870;12.542;2023-12-20T02:06:08;4.60;1.00
1476;DHT22;730;48.870;12.542;2023-12-20T02:08:35;4.60;1.00
1476;DHT22;730;48.870;12.542;2023-12-20T02:11:02;4.60;1.00
1476;DHT22;730;48.870;12.542;2023-12-20T02:13:28;4.60;1.00
1476;DHT22;730;48.870;12.542;2023-12-20T02:15:57;4.60;1.00
1476;DHT22;730;48.870;12.542;2023-12-20T02:18:23;4.70;1.00
1476;DHT22;730;48.870;12.542;2023-12-20T02:20:49;4.70;1.00
1476;DHT22;730;48.870;12.542;2023-12-20T02:23:15;4.70;1.00
1476;DHT22;730;48.870;12.542;2023-12-20T02:25:42;4.70;1.00
1476;DHT22;730;48.870;12.542;2023-12-20T02:28:08;4.70;1.00
1476;DHT22;730;48.870;12.542;2023-12-20T02:30:34;4.60;1.00
1476;DHT22;730;48.870;12.542;2023-12-20T02:33:01;4.60;1.00
1476;DHT22;730;48.870;12.542;2023-12-20T02:35:28;4.60;1.00
1476;DHT22;730;48.870;12.542;2023-12-20T02:37:54;4.60;1.00
1476;DHT22;730;48.870;12.542;2023-12-20T02:40:20;4.60;1.00
1476;DHT22;730;48.870;12.542;2023-12-20T02:42:46;4.60;1.00
1476;DHT22;730;48.870;12.542;2023-12-20T02:45:12;4.60;1.00
1476;DHT22;730;48.870;12.542;2023-12-20T02:47:38;4.60;1.00
1476;DHT22;730;48.870;12.542;2023-12-20T02:50:04;4.50;1.00
1476;DHT22;730;48.870;12.542;2023-12-20T02:52:31;4.50;1.00
1476;DHT22;730;48.870;12.542;2023-12-20T02:54:57;4.40;1.00
1476;DHT22;730;48.870;12.542;2023-12-20T02:57:23;4.40;1.00
1476;DHT22;730;48.870;12.542;2023-12-20T02:59:49;4.40;1.00
1476;DHT22;730;48.870;12.542;2023-12-20T03:02:15;4.40;1.00
1476;DHT22;730;48.870;12.542;2023-12-20T03:04:42;4.40;1.00
1476;DHT22;730;48.870;12.542;2023-12-20T03:07:08;4.40;1.00
1476;DHT22;730;48.870;12.542;2023-12-20T03:09:34;4.40;1.00
1476;DHT22;730;48.870;12.542;2023-12-20T03:12:00;4.40;1.00
1476;DHT22;730;48.870;12.542;2023-12-20T03:14:26;4.40;1.00
1476;DHT22;730;48.870;12.542;2023-12-20T03:16:52;4.40;1.00
1476;DHT22;730;48.870;12.542;2023-12-20T03:19:18;4.40;1.00
1476;DHT22;730;48.870;12.542;2023-12-20T03:21:45;4.30;1.00
1476;DHT22;730;48.870;12.542;2023-12-20T03:24:11;4.30;1.00
1476;DHT22;730;48.870;12.542;2023-12-20T03:26:37;4.30;1.00
1476;DHT22;730;48.870;12.542;2023-12-20T03:29:03;4.30;1.00
1476;DHT22;730;48.870;12.542;2023-12-20T03:31:29;4.30;1.00
1476;DHT22;730;48.870;12.542;2023-12-20T03:33:55;4.30;1.00
1476;DHT22;730;48.870;12.542;2023-12-20T03:36:21;4.30;1.00
1476;DHT22;730;48.870;12.542;2023-12-20T03:38:47;4.30;1.00
1476;DHT22;730;48.870;12.542;2023-12-20T03:41:13;4.30;1.00
1476;DHT22;730;48.870;12.542;2023-12-20T03:43:39;4.30;1.00
1476;DHT22;730;48.870;12.542;2023-12-20T03:46:08;4.30;1.00
1476;DHT22;730;48.870;12.542;2023-12-20T03:48:34;4.30;1.00
1476;DHT22;730;48.870;12.542;2023-12-20T03:51:00;4.30;1.00
1476;DHT22;730;48.870;12.542;2023-12-20T03:53:26;4.30;1.00
1476;DHT22;730;48.870;12.542;2023-12-20T03:55:52;4.20;1.00
1476;DHT22;730;48.870;12.542;2023-12-20T03:58:18;4.20;1.00
1476;DHT22;730;48.870;12.542;2023-12-20T04:00:44;4.10;1.00
1476;DHT22;730;48.870;12.542;2023-12-20T04:03:10;4.10;1.00
1476;DHT22;730;48.870;12.542;2023-12-20T04:05:40;4.10;1.00
1476;DHT22;730;48.870;12.542;2023-12-20T04:08:07;4.10;1.00
1476;DHT22;730;48.870;12.542;2023-12-20T04:10:34;4.10;1.00
1476;DHT22;730;48.870;12.542;2023-12-20T04:13:00;4.10;1.00
1476;DHT22;730;48.870;12.542;2023-12-20T04:15:26;4.10;1.00
1476;DHT22;730;48.870;12.542;2023-12-20T04:17:52;4.10;1.00
1476;DHT22;730;48.870;12.542;2023-12-20T04:20:18;4.10;1.00
1476;DHT22;730;48.870;12.542;2023-12-20T04:22:44;4.20;1.00
1476;DHT22;730;48.870;12.542;2023-12-20T04:25:10;4.20;1.00
1476;DHT22;730;48.870;12.542;2023-12-20T04:27:36;4.20;1.00
1476;DHT22;730;48.870;12.542;2023-12-20T04:30:02;4.20;1.00
1476;DHT22;730;48.870;12.542;2023-12-20T04:32:29;4.30;1.00
1476;DHT22;730;48.870;12.542;2023-12-20T04:34:55;4.30;1.00
1476;DHT22;730;48.870;12.542;2023-12-20T04:37:21;4.40;1.00
1476;DHT22;730;48.870;12.542;2023-12-20T04:39:47;4.30;1.00
1476;DHT22;730;48.870;12.542;2023-12-20T04:42:13;4.40;1.00
1476;DHT22;730;48.870;12.542;2023-12-20T04:44:39;4.40;1.00
1476;DHT22;730;48.870;12.542;2023-12-20T04:47:05;4.40;1.00
1476;DHT22;730;48.870;12.542;2023-12-20T04:49:31;4.40;1.00
1476;DHT22;730;48.870;12.542;2023-12-20T04:51:57;4.40;1.00
1476;DHT22;730;48.870;12.542;2023-12-20T04:54:23;4.50;1.00
1476;DHT22;730;48.870;12.542;2023-12-20T04:56:49;4.50;1.00
1476;DHT22;730;48.870;12.542;2023-12-20T04:59:16;4.50;1.00
1476;DHT22;730;48.870;12.542;2023-12-20T05:01:42;4.50;1.00
1476;DHT22;730;48.870;12.542;2023-12-20T05:04:08;4.50;1.00
1476;DHT22;730;48.870;12.542;2023-12-20T05:06:34;4.40;1.00
1476;DHT22;730;48.870;12.542;2023-12-20T05:09:00;4.40;1.00
1476;DHT22;730;48.870;12.542;2023-12-20T05:11:26;4.30;1.00
1476;DHT22;730;48.870;12.542;2023-12-20T05:13:52;4.30;1.00
1476;DHT22;730;48.870;12.542;2023-12-20T05:16:18;4.30;1.00
1476;DHT22;730;48.870;12.542;2023-12-20T05:18:45;4.30;1.00
1476;DHT22;730;48.870;12.542;2023-12-20T05:21:11;4.40;1.00
1476;DHT22;730;48.870;12.542;2023-12-20T05:23:37;4.40;1.30
1476;DHT22;730;48.870;12.542;2023-12-20T05:26:04;4.40;1.80
1476;DHT22;730;48.870;12.542;2023-12-20T05:28:31;4.40;2.20
1476;DHT22;730;48.870;12.542;2023-12-20T05:30:57;4.50;2.60
1476;DHT22;730;48.870;12.542;2023-12-20T05:33:24;4.50;2.90
1476;DHT22;730;48.870;12.542;2023-12-20T05:35:50;4.50;3.10
1476;DHT22;730;48.870;12.542;2023-12-20T05:38:16;4.50;3.40
1476;DHT22;730;48.870;12.542;2023-12-20T05:40:42;4.60;3.60
1476;DHT22;730;48.870;12.542;2023-12-20T05:43:08;4.60;3.80
1476;DHT22;730;48.870;12.542;2023-12-20T05:45:34;4.60;3.90
1476;DHT22;730;48.870;12.542;2023-12-20T05:48:00;4.60;4.00
1476;DHT22;730;48.870;12.542;2023-12-20T05:50:26;4.60;4.20
1476;DHT22;730;48.870;12.542;2023-12-20T05:52:52;4.70;4.50
1476;DHT22;730;48.870;12.542;2023-12-20T05:55:19;4.70;4.40
1476;DHT22;730;48.870;12.542;2023-12-20T05:57:45;4.80;4.80
1476;DHT22;730;48.870;12.542;2023-12-20T06:00:11;4.80;4.90
1476;DHT22;730;48.870;12.542;2023-12-20T06:02:38;4.90;5.00
1476;DHT22;730;48.870;12.542;2023-12-20T06:05:05;4.90;4.30
1476;DHT22;730;48.870;12.542;2023-12-20T06:07:31;5.00;4.10
1476;DHT22;730;48.870;12.542;2023-12-20T06:09:57;5.00;3.90
1476;DHT22;730;48.870;12.542;2023-12-20T06:12:24;5.00;3.70
1476;DHT22;730;48.870;12.542;2023-12-20T06:14:52;5.00;3.50
1476;DHT22;730;48.870;12.542;2023-12-20T06:17:18;5.00;3.50
1476;DHT22;730;48.870;12.542;2023-12-20T06:19:45;5.00;3.70
1476;DHT22;730;48.870;12.542;2023-12-20T06:22:15;5.00;3.70
1476;DHT22;730;48.870;12.542;2023-12-20T06:24:41;5.10;3.50
1476;DHT22;730;48.870;12.542;2023-12-20T06:27:07;5.10;3.60
1476;DHT22;730;48.870;12.542;2023-12-20T06:29:33;5.10;3.60
1476;DHT22;730;48.870;12.542;2023-12-20T06:32:00;5.10;3.70
1476;DHT22;730;48.870;12.542;2023-12-20T06:34:27;5.10;3.70
1476;DHT22;730;48.870;12.542;2023-12-20T06:36:53;5.10;4.20
1476;DHT22;730;48.870;12.542;2023-12-20T06:39:19;5.20;3.30
1476;DHT22;730;48.870;12.542;2023-12-20T06:41:45;5.20;3.30
1476;DHT22;730;48.870;12.542;2023-12-20T06:44:11;5.10;3.40
1476;DHT22;730;48.870;12.542;2023-12-20T06:46:37;5.20;3.30
1476;DHT22;730;48.870;12.542;2023-12-20T06:49:03;5.20;3.30
1476;DHT22;730;48.870;12.542;2023-12-20T06:51:29;5.20;3.40
1476;DHT22;730;48.870;12.542;2023-12-20T06:53:56;5.20;3.60
1476;DHT22;730;48.870;12.542;2023-12-20T06:56:22;5.20;3.60
1476;DHT22;730;48.870;12.542;2023-12-20T06:58:48;5.20;3.70
1476;DHT22;730;48.870;12.542;2023-12-20T07:01:15;5.20;3.70
1476;DHT22;730;48.870;12.542;2023-12-20T07:03:41;5.20;3.70
1476;DHT22;730;48.870;12.542;2023-12-20T07:06:08;5.20;3.60
1476;DHT22;730;48.870;12.542;2023-12-20T07:08:34;5.30;3.60
1476;DHT22;730;48.870;12.542;2023-12-20T07:11:00;5.30;3.60
1476;DHT22;730;48.870;12.542;2023-12-20T07:13:26;5.30;3.50
1476;DHT22;730;48.870;12.542;2023-12-20T07:15:52;5.30;3.40
1476;DHT22;730;48.870;12.542;2023-12-20T07:18:18;5.30;3.60
1476;DHT22;730;48.870;12.542;2023-12-20T07:20:44;5.30;3.40
1476;DHT22;730;48.870;12.542;2023-12-20T07:23:10;5.30;3.50
1476;DHT22;730;48.870;12.542;2023-12-20T07:25:37;5.30;3.50
1476;DHT22;730;48.870;12.542;2023-12-20T07:28:03;5.30;3.40
1476;DHT22;730;48.870;12.542;2023-12-20T07:30:29;5.30;3.40
1476;DHT22;730;48.870;12.542;2023-12-20T07:32:55;5.30;3.20
1476;DHT22;730;48.870;12.542;2023-12-20T07:35:23;5.40;3.10
1476;DHT22;730;48.870;12.542;2023-12-20T07:37:49;5.30;3.20
1476;DHT22;730;48.870;12.542;2023-12-20T07:40:15;5.40;3.30
1476;DHT22;730;48.870;12.542;2023-12-20T07:42:42;5.30;3.40
1476;DHT22;730;48.870;12.542;2023-12-20T07:45:09;5.30;3.40
1476;DHT22;730;48.870;12.542;2023-12-20T07:47:36;5.40;3.40
1476;DHT22;730;48.870;12.542;2023-12-20T07:50:02;5.40;3.40
1476;DHT22;730;48.870;12.542;2023-12-20T07:52:29;5.40;3.30
1476;DHT22;730;48.870;12.542;2023-12-20T07:54:55;5.40;3.30
1476;DHT22;730;48.870;12.542;2023-12-20T07:57:21;5.40;3.40
1476;DHT22;730;48.870;12.542;2023-12-20T07:59:47;5.40;3.20
1476;DHT22;730;48.870;12.542;2023-12-20T08:02:13;5.40;3.20
1476;DHT22;730;48.870;12.542;2023-12-20T08:04:39;5.50;3.30
1476;DHT22;730;48.870;12.542;2023-12-20T08:07:07;5.50;3.00
1476;DHT22;730;48.870;12.542;2023-12-20T08:09:33;5.50;2.90
1476;DHT22;730;48.870;12.542;2023-12-20T08:12:00;5.50;2.90
1476;DHT22;730;48.870;12.542;2023-12-20T08:14:26;5.50;2.70
1476;DHT22;730;48.870;12.542;2023-12-20T08:16:52;5.60;2.60
1476;DHT22;730;48.870;12.542;2023-12-20T08:19:18;5.60;2.50
1476;DHT22;730;48.870;12.542;2023-12-20T08:21:44;5.60;2.10
1476;DHT22;730;48.870;12.542;2023-12-20T08:24:10;5.60;2.10
1476;DHT22;730;48.870;12.542;2023-12-20T08:26:36;5.60;2.10
1476;DHT22;730;48.870;12.542;2023-12-20T08:29:02;5.60;1.90
1476;DHT22;730;48.870;12.542;2023-12-20T08:31:28;5.60;2.20
1476;DHT22;730;48.870;12.542;2023-12-20T08:33:55;5.60;2.30
1476;DHT22;730;48.870;12.542;2023-12-20T08:36:21;5.60;2.30
1476;DHT22;730;48.870;12.542;2023-12-20T08:38:48;5.60;2.40
1476;DHT22;730;48.870;12.542;2023-12-20T08:41:16;5.60;2.60
1476;DHT22;730;48.870;12.542;2023-12-20T08:43:43;5.70;3.20
1476;DHT22;730;48.870;12.542;2023-12-20T08:46:09;5.70;2.40
1476;DHT22;730;48.870;12.542;2023-12-20T08:48:38;5.70;2.40
1476;DHT22;730;48.870;12.542;2023-12-20T08:51:05;5.70;2.20
1476;DHT22;730;48.870;12.542;2023-12-20T08:53:34;5.70;2.20
1476;DHT22;730;48.870;12.542;2023-12-20T08:56:05;5.80;2.10
1476;DHT22;730;48.870;12.542;2023-12-20T08:58:31;5.80;2.20
1476;DHT22;730;48.870;12.542;2023-12-20T09:00:57;5.80;2.10
1476;DHT22;730;48.870;12.542;2023-12-20T09:03:23;5.90;1.60
1476;DHT22;730;48.870;12.542;2023-12-20T09:05:49;5.90;1.40
1476;DHT22;730;48.870;12.542;2023-12-20T09:08:16;5.90;1.00
1476;DHT22;730;48.870;12.542;2023-12-20T09:10:42;5.90;1.00
1476;DHT22;730;48.870;12.542;2023-12-20T09:13:08;6.00;1.00
1476;DHT22;730;48.870;12.542;2023-12-20T09:15:34;6.00;1.00
1476;DHT22;730;48.870;12.542;2023-12-20T09:18:00;6.00;1.00
1476;DHT22;730;48.870;12.542;2023-12-20T09:20:26;6.00;1.00
1476;DHT22;730;48.870;12.542;2023-12-20T09:22:53;6.00;1.00
1476;DHT22;730;48.870;12.542;2023-12-20T09:25:19;6.00;1.00
1476;DHT22;730;48.870;12.542;2023-12-20T09:27:45;6.10;1.00
1476;DHT22;730;48.870;12.542;2023-12-20T09:30:12;6.10;1.00
1476;DHT22;730;48.870;12.542;2023-12-20T09:32:38;6.20;1.00
1476;DHT22;730;48.870;12.542;2023-12-20T09:35:04;6.20;1.00
1476;DHT22;730;48.870;12.542;2023-12-20T09:37:32;6.20;1.00
1476;DHT22;730;48.870;12.542;2023-12-20T09:39:58;6.20;1.00
1476;DHT22;730;48.870;12.542;2023-12-20T09:42:53;6.30;1.00
1476;DHT22;730;48.870;12.542;2023-12-20T09:45:16;6.30;1.00
1476;DHT22;730;48.870;12.542;2023-12-20T09:47:45;6.30;1.00
1476;DHT22;730;48.870;12.542;2023-12-20T09:50:12;6.30;1.00
1476;DHT22;730;48.870;12.542;2023-12-20T09:52:39;6.30;1.00
1476;DHT22;730;48.870;12.542;2023-12-20T09:55:07;6.30;1.00
1476;DHT22;730;48.870;12.542;2023-12-20T09:57:33;6.40;1.00
1476;DHT22;730;48.870;12.542;2023-12-20T09:59:59;6.30;1.00
1476;DHT22;730;48.870;12.542;2023-12-20T10:02:26;6.30;1.00
1476;DHT22;730;48.870;12.542;2023-12-20T10:04:54;6.40;1.00
1476;DHT22;730;48.870;12.542;2023-12-20T10:07:20;6.40;1.00
1476;DHT22;730;48.870;12.542;2023-12-20T10:09:48;6.30;1.00
1476;DHT22;730;48.870;12.542;2023-12-20T10:12:14;6.40;1.00
1476;DHT22;730;48.870;12.542;2023-12-20T10:14:40;6.40;1.00
1476;DHT22;730;48.870;12.542;2023-12-20T10:17:06;6.40;1.00
1476;DHT22;730;48.870;12.542;2023-12-20T10:19:33;6.40;1.00
1476;DHT22;730;48.870;12.542;2023-12-20T10:21:59;6.40;1.00
1476;DHT22;730;48.870;12.542;2023-12-20T10:24:28;6.40;1.00
1476;DHT22;730;48.870;12.542;2023-12-20T10:27:06;6.40;1.00
1476;DHT22;730;48.870;12.542;2023-12-20T10:29:33;6.40;1.00
1476;DHT22;730;48.870;12.542;2023-12-20T10:31:59;6.40;1.00
1476;DHT22;730;48.870;12.542;2023-12-20T10:34:25;6.40;1.00
1476;DHT22;730;48.870;12.542;2023-12-20T10:36:52;6.50;1.00
1476;DHT22;730;48.870;12.542;2023-12-20T10:39:18;6.50;1.00
1476;DHT22;730;48.870;12.542;2023-12-20T10:41:46;6.50;1.00
1476;DHT22;730;48.870;12.542;2023-12-20T10:44:13;6.60;1.00
1476;DHT22;730;48.870;12.542;2023-12-20T10:46:40;6.60;1.00
1476;DHT22;730;48.870;12.542;2023-12-20T10:49:07;6.70;1.00
1476;DHT22;730;48.870;12.542;2023-12-20T10:51:35;6.70;1.00
1476;DHT22;730;48.870;12.542;2023-12-20T10:54:02;6.70;1.00
1476;DHT22;730;48.870;12.542;2023-12-20T10:56:32;6.70;1.00
1476;DHT22;730;48.870;12.542;2023-12-20T10:59:02;6.70;1.00
1476;DHT22;730;48.870;12.542;2023-12-20T11:01:30;6.70;1.00
1476;DHT22;730;48.870;12.542;2023-12-20T11:03:57;6.80;1.00
1476;DHT22;730;48.870;12.542;2023-12-20T11:06:36;6.90;1.00
1476;DHT22;730;48.870;12.542;2023-12-20T11:12:10;6.90;1.00
1476;DHT22;730;48.870;12.542;2023-12-20T11:14:46;6.90;1.00
1476;DHT22;730;48.870;12.542;2023-12-20T11:17:13;6.90;1.00
1476;DHT22;730;48.870;12.542;2023-12-20T11:22:27;7.00;1.00
1476;DHT22;730;48.870;12.542;2023-12-20T11:24:53;7.00;1.00
1476;DHT22;730;48.870;12.542;2023-12-20T11:27:21;7.10;1.00
1476;DHT22;730;48.870;12.542;2023-12-20T11:29:52;7.10;1.00
1476;DHT22;730;48.870;12.542;2023-12-20T11:34:58;7.10;1.00
1476;DHT22;730;48.870;12.542;2023-12-20T11:37:32;7.00;1.00
1476;DHT22;730;48.870;12.542;2023-12-20T11:40:08;7.00;1.00
1476;DHT22;730;48.870;12.542;2023-12-20T11:42:58;7.00;1.00
1476;DHT22;730;48.870;12.542;2023-12-20T11:45:25;7.10;1.00
1476;DHT22;730;48.870;12.542;2023-12-20T11:47:52;7.20;1.00
1476;DHT22;730;48.870;12.542;2023-12-20T11:50:21;7.30;1.00
1476;DHT22;730;48.870;12.542;2023-12-20T11:52:48;7.30;1.00
1476;DHT22;730;48.870;12.542;2023-12-20T11:55:15;7.40;1.00
1476;DHT22;730;48.870;12.542;2023-12-20T11:57:42;7.50;1.00
1476;DHT22;730;48.870;12.542;2023-12-20T12:00:09;7.50;1.00
1476;DHT22;730;48.870;12.542;2023-12-20T12:02:35;7.60;1.00
1476;DHT22;730;48.870;12.542;2023-12-20T12:05:01;7.70;1.00
1476;DHT22;730;48.870;12.542;2023-12-20T12:07:28;7.80;1.00
1476;DHT22;730;48.870;12.542;2023-12-20T12:09:54;7.80;1.00
1476;DHT22;730;48.870;12.542;2023-12-20T12:12:20;7.80;1.00
1476;DHT22;730;48.870;12.542;2023-12-20T12:14:46;7.80;1.00
1476;DHT22;730;48.870;12.542;2023-12-20T12:17:13;7.70;1.00
1476;DHT22;730;48.870;12.542;2023-12-20T12:19:43;7.70;1.00
1476;DHT22;730;48.870;12.542;2023-12-20T12:22:14;7.80;1.00
1476;DHT22;730;48.870;12.542;2023-12-20T12:24:44;7.90;1.00
1476;DHT22;730;48.870;12.542;2023-12-20T12:27:12;7.90;1.00
1476;DHT22;730;48.870;12.542;2023-12-20T12:29:38;7.90;1.00
1476;DHT22;730;48.870;12.542;2023-12-20T12:32:07;7.90;1.00
1476;DHT22;730;48.870;12.542;2023-12-20T12:34:34;7.90;1.00
1476;DHT22;730;48.870;12.542;2023-12-20T12:37:01;7.90;1.00
1476;DHT22;730;48.870;12.542;2023-12-20T12:39:27;7.90;1.00
1476;DHT22;730;48.870;12.542;2023-12-20T12:41:53;7.90;1.00
1476;DHT22;730;48.870;12.542;2023-12-20T12:44:19;7.90;1.00
1476;DHT22;730;48.870;12.542;2023-12-20T12:46:46;8.00;1.00
1476;DHT22;730;48.870;12.542;2023-12-20T12:49:12;8.00;1.00
1476;DHT22;730;48.870;12.542;2023-12-20T12:51:39;7.90;1.00
1476;DHT22;730;48.870;12.542;2023-12-20T12:54:05;8.00;1.00
1476;DHT22;730;48.870;12.542;2023-12-20T12:56:32;7.90;1.00
1476;DHT22;730;48.870;12.542;2023-12-20T12:58:58;7.90;1.00
1476;DHT22;730;48.870;12.542;2023-12-20T13:01:24;7.80;1.00
1476;DHT22;730;48.870;12.542;2023-12-20T13:03:50;7.80;1.00
1476;DHT22;730;48.870;12.542;2023-12-20T13:06:16;7.70;1.00
1476;DHT22;730;48.870;12.542;2023-12-20T13:08:43;7.70;1.00
1476;DHT22;730;48.870;12.542;2023-12-20T13:11:10;7.60;1.00
1476;DHT22;730;48.870;12.542;2023-12-20T13:13:36;7.60;1.00
1476;DHT22;730;48.870;12.542;2023-12-20T13:16:02;7.50;1.00
1476;DHT22;730;48.870;12.542;2023-12-20T13:18:28;7.40;1.00
1476;DHT22;730;48.870;12.542;2023-12-20T13:20:54;7.40;1.00
1476;DHT22;730;48.870;12.542;2023-12-20T13:23:20;7.40;1.00
1476;DHT22;730;48.870;12.542;2023-12-20T13:25:46;7.40;1.00
1476;DHT22;730;48.870;12.542;2023-12-20T13:28:13;7.30;1.00
1476;DHT22;730;48.870;12.542;2023-12-20T13:30:39;7.30;1.00
1476;DHT22;730;48.870;12.542;2023-12-20T13:33:06;7.20;1.00
1476;DHT22;730;48.870;12.542;2023-12-20T13:35:32;7.20;1.00
1476;DHT22;730;48.870;12.542;2023-12-20T13:37:59;7.30;1.00
1476;DHT22;730;48.870;12.542;2023-12-20T13:40:25;7.30;1.00
1476;DHT22;730;48.870;12.542;2023-12-20T13:42:51;7.30;1.00
1476;DHT22;730;48.870;12.542;2023-12-20T13:45:18;7.40;1.00
1476;DHT22;730;48.870;12.542;2023-12-20T13:47:44;7.40;1.00
1476;DHT22;730;48.870;12.542;2023-12-20T13:50:11;7.40;1.00
1476;DHT22;730;48.870;12.542;2023-12-20T13:52:38;7.40;1.00
1476;DHT22;730;48.870;12.542;2023-12-20T13:55:04;7.40;1.00
1476;DHT22;730;48.870;12.542;2023-12-20T13:57:33;7.30;1.00
1476;DHT22;730;48.870;12.542;2023-12-20T14:00:00;7.20;1.00
1476;DHT22;730;48.870;12.542;2023-12-20T14:02:26;7.20;1.00
1476;DHT22;730;48.870;12.542;2023-12-20T14:04:52;7.20;1.00
1476;DHT22;730;48.870;12.542;2023-12-20T14:07:18;7.20;1.00
1476;DHT22;730;48.870;12.542;2023-12-20T14:09:45;7.20;1.00
1476;DHT22;730;48.870;12.542;2023-12-20T14:12:12;7.10;1.00
1476;DHT22;730;48.870;12.542;2023-12-20T14:14:38;7.10;1.00
1476;DHT22;730;48.870;12.542;2023-12-20T14:17:04;7.10;1.00
1476;DHT22;730;48.870;12.542;2023-12-20T14:19:32;7.00;1.00
1476;DHT22;730;48.870;12.542;2023-12-20T14:21:58;7.00;1.00
1476;DHT22;730;48.870;12.542;2023-12-20T14:24:27;6.90;1.00
1476;DHT22;730;48.870;12.542;2023-12-20T14:26:54;7.00;1.00
1476;DHT22;730;48.870;12.542;2023-12-20T14:29:21;7.00;1.00
1476;DHT22;730;48.870;12.542;2023-12-20T14:31:47;7.00;1.00
1476;DHT22;730;48.870;12.542;2023-12-20T14:34:15;7.10;1.00
1476;DHT22;730;48.870;12.542;2023-12-20T14:36:42;7.10;1.00
1476;DHT22;730;48.870;12.542;2023-12-20T14:39:08;7.00;1.00
1476;DHT22;730;48.870;12.542;2023-12-20T14:41:37;7.00;1.00
1476;DHT22;730;48.870;12.542;2023-12-20T14:44:03;7.00;1.00
1476;DHT22;730;48.870;12.542;2023-12-20T14:46:30;6.90;1.00
1476;DHT22;730;48.870;12.542;2023-12-20T14:48:56;6.90;1.00
1476;DHT22;730;48.870;12.542;2023-12-20T14:51:22;6.80;1.00
1476;DHT22;730;48.870;12.542;2023-12-20T14:53:48;6.80;1.00
1476;DHT22;730;48.870;12.542;2023-12-20T14:56:14;6.70;1.00
1476;DHT22;730;48.870;12.542;2023-12-20T14:58:41;6.70;1.00
1476;DHT22;730;48.870;12.542;2023-12-20T15:01:07;6.70;1.00
1476;DHT22;730;48.870;12.542;2023-12-20T15:03:34;6.70;1.00
1476;DHT22;730;48.870;12.542;2023-12-20T15:06:00;6.70;1.00
1476;DHT22;730;48.870;12.542;2023-12-20T15:08:26;6.60;1.00
1476;DHT22;730;48.870;12.542;2023-12-20T15:10:52;6.60;1.00
1476;DHT22;730;48.870;12.542;2023-12-20T15:13:19;6.50;1.00
1476;DHT22;730;48.870;12.542;2023-12-20T15:15:45;6.50;1.00
1476;DHT22;730;48.870;12.542;2023-12-20T15:18:11;6.50;1.00
1476;DHT22;730;48.870;12.542;2023-12-20T15:20:37;6.50;1.00
1476;DHT22;730;48.870;12.542;2023-12-20T15:23:04;6.50;1.00
1476;DHT22;730;48.870;12.542;2023-12-20T15:25:32;6.50;1.00
1476;DHT22;730;48.870;12.542;2023-12-20T15:27:58;6.50;1.00
1476;DHT22;730;48.870;12.542;2023-12-20T15:30:24;6.40;1.00
1476;DHT22;730;48.870;12.542;2023-12-20T15:32:51;6.30;1.00
1476;DHT22;730;48.870;12.542;2023-12-20T15:35:17;6.20;1.00
1476;DHT22;730;48.870;12.542;2023-12-20T15:37:43;6.20;1.00
1476;DHT22;730;48.870;12.542;2023-12-20T15:40:10;6.20;1.00
1476;DHT22;730;48.870;12.542;2023-12-20T15:42:37;6.10;1.00
1476;DHT22;730;48.870;12.542;2023-12-20T15:45:04;6.10;1.00
1476;DHT22;730;48.870;12.542;2023-12-20T15:47:31;6.00;1.00
1476;DHT22;730;48.870;12.542;2023-12-20T15:49:57;5.90;1.00
1476;DHT22;730;48.870;12.542;2023-12-20T15:52:24;5.80;1.00
1476;DHT22;730;48.870;12.542;2023-12-20T15:54:50;5.80;1.00
1476;DHT22;730;48.870;12.542;2023-12-20T15:57:16;5.70;1.00
1476;DHT22;730;48.870;12.542;2023-12-20T15:59:43;5.70;1.00
1476;DHT22;730;48.870;12.542;2023-12-20T16:02:09;5.60;1.00
1476;DHT22;730;48.870;12.542;2023-12-20T16:04:35;5.50;1.00
1476;DHT22;730;48.870;12.542;2023-12-20T16:07:02;5.60;1.00
1476;DHT22;730;48.870;12.542;2023-12-20T16:09:28;5.60;1.00
1476;DHT22;730;48.870;12.542;2023-12-20T16:11:54;5.50;1.00
1476;DHT22;730;48.870;12.542;2023-12-20T16:14:20;5.50;1.00
1476;DHT22;730;48.870;12.542;2023-12-20T16:16:47;5.50;1.00
1476;DHT22;730;48.870;12.542;2023-12-20T16:19:13;5.50;1.00
1476;DHT22;730;48.870;12.542;2023-12-20T16:21:39;5.50;1.00
1476;DHT22;730;48.870;12.542;2023-12-20T16:24:06;5.50;1.00
1476;DHT22;730;48.870;12.542;2023-12-20T16:26:32;5.50;1.00
1476;DHT22;730;48.870;12.542;2023-12-20T16:28:58;5.50;1.00
1476;DHT22;730;48.870;12.542;2023-12-20T16:31:24;5.50;1.00
1476;DHT22;730;48.870;12.542;2023-12-20T16:33:50;5.50;1.00
1476;DHT22;730;48.870;12.542;2023-12-20T16:36:20;5.50;1.00
1476;DHT22;730;48.870;12.542;2023-12-20T16:38:46;5.50;1.00